createdAt,value
2022-10-02T00:02:25.189Z,10.23
2022-10-02T00:07:42.453Z,10.33
2022-10-02T00:12:45.529Z,10.41
2022-10-02T00:17:51.100Z,10.37
2022-10-02T00:23:00.723Z,10.37
2022-10-02T00:28:02.283Z,10.36
2022-10-02T00:33:19.461Z,10.37
2022-10-02T00:38:39.596Z,10.35
2022-10-02T00:43:56.041Z,10.32
2022-10-02T00:49:11.973Z,10.33
2022-10-02T00:54:41.381Z,10.34
2022-10-02T01:00:06.067Z,10.33
2022-10-02T01:05:09.113Z,10.30
2022-10-02T01:10:12.860Z,10.37
2022-10-02T01:15:20.547Z,10.26
2022-10-02T01:20:46.624Z,10.17
2022-10-02T01:25:48.182Z,10.17
2022-10-02T01:30:54.639Z,10.23
2022-10-02T01:35:56.232Z,10.18
2022-10-02T01:40:57.643Z,10.08
2022-10-02T01:46:12.150Z,10.13
2022-10-02T01:51:32.499Z,10.04
2022-10-02T01:56:52.201Z,10.03
2022-10-02T02:02:24.766Z,9.99
2022-10-02T02:07:46.542Z,10.04
2022-10-02T02:12:54.109Z,10.12
2022-10-02T02:18:03.083Z,10.04
2022-10-02T02:23:09.716Z,10.07
2022-10-02T02:28:15.216Z,10.00
2022-10-02T02:33:22.993Z,10.03
2022-10-02T02:38:32.644Z,10.10
2022-10-02T02:43:41.312Z,10.08
2022-10-02T02:48:54.117Z,10.12
2022-10-02T02:54:10.686Z,10.16
2022-10-02T02:59:14.540Z,10.17
2022-10-02T03:04:15.977Z,10.16
2022-10-02T03:09:23.428Z,10.07
2022-10-02T03:14:58.095Z,10.12
2022-10-02T03:20:02.566Z,10.18
2022-10-02T03:25:24.046Z,10.26
2022-10-02T03:30:27.016Z,10.30
2022-10-02T03:35:29.910Z,10.37
2022-10-02T03:40:31.343Z,10.47
2022-10-02T03:45:50.402Z,10.53
2022-10-02T03:50:52.669Z,10.41
2022-10-02T03:56:00.752Z,10.53
2022-10-02T04:01:12.561Z,10.59
2022-10-02T04:06:36.181Z,10.59
2022-10-02T04:11:46.418Z,10.58
2022-10-02T04:17:02.049Z,10.44
2022-10-02T04:22:18.529Z,10.33
2022-10-02T04:27:25.945Z,10.11
2022-10-02T04:32:34.416Z,9.87
2022-10-02T04:37:42.925Z,9.74
2022-10-02T04:43:00.226Z,9.86
2022-10-02T04:48:32.189Z,9.78
2022-10-02T04:53:55.819Z,9.88
2022-10-02T04:59:38.244Z,9.80
2022-10-02T05:04:42.644Z,9.82
2022-10-02T05:09:56.625Z,9.77
2022-10-02T05:15:03.925Z,9.84
2022-10-02T05:20:24.445Z,9.96
2022-10-02T05:25:43.749Z,10.06
2022-10-02T05:31:07.018Z,10.21
2022-10-02T05:36:30.100Z,10.39
2022-10-02T05:41:49.982Z,10.48
2022-10-02T05:47:01.368Z,10.52
2022-10-02T05:52:13.590Z,10.58
2022-10-02T05:57:41.391Z,10.70
2022-10-02T06:03:23.037Z,10.62
2022-10-02T06:08:47.119Z,10.63
2022-10-02T06:14:00.541Z,10.64
2022-10-02T06:19:15.861Z,10.65
2022-10-02T06:24:59.029Z,10.74
2022-10-02T06:30:05.116Z,10.76
2022-10-02T06:35:12.021Z,10.88
2022-10-02T06:40:42.813Z,11.04
2022-10-02T06:45:58.421Z,11.07
2022-10-02T06:51:21.755Z,11.07
2022-10-02T06:56:45.323Z,11.17
2022-10-02T07:01:57.492Z,11.24
2022-10-02T07:07:16.580Z,11.24
2022-10-02T07:12:37.624Z,11.46
2022-10-02T07:17:57.825Z,11.70
2022-10-02T07:23:16.281Z,11.98
2022-10-02T07:28:32.898Z,12.23
2022-10-02T07:33:44.705Z,12.03
2022-10-02T07:39:01.242Z,11.89
2022-10-02T07:44:11.925Z,12.10
2022-10-02T07:49:22.538Z,12.17
2022-10-02T07:54:41.812Z,12.17
2022-10-02T07:59:44.541Z,12.35
2022-10-02T08:04:47.132Z,12.33
2022-10-02T08:09:52.564Z,12.37
2022-10-02T08:14:55.755Z,12.55
2022-10-02T08:20:04.717Z,12.65
2022-10-02T08:25:28.172Z,12.86
2022-10-02T08:30:29.680Z,13.15
2022-10-02T08:35:49.155Z,13.20
2022-10-02T08:41:28.199Z,13.32
2022-10-02T08:46:32.353Z,13.61
2022-10-02T08:51:51.008Z,13.76
2022-10-02T08:57:26.258Z,14.01
2022-10-02T09:03:01.029Z,14.95
2022-10-02T09:08:30.121Z,15.35
2022-10-02T09:14:10.300Z,15.28
2022-10-02T09:19:19.211Z,16.30
2022-10-02T09:24:59.969Z,16.13
2022-10-02T09:30:12.802Z,16.15
2022-10-02T09:35:28.793Z,16.68
2022-10-02T09:40:45.259Z,17.03
2022-10-02T09:45:59.016Z,18.18
2022-10-02T09:51:19.046Z,18.48
2022-10-02T09:56:34.715Z,18.66
2022-10-02T10:01:45.852Z,17.61
2022-10-02T10:07:02.562Z,18.31
2022-10-02T10:12:49.592Z,18.22
2022-10-02T10:18:05.758Z,21.74
2022-10-02T10:23:35.809Z,21.49
2022-10-02T10:28:46.565Z,25.27
2022-10-02T10:34:02.610Z,21.84
2022-10-02T10:39:45.084Z,24.49
2022-10-02T10:45:05.702Z,20.65
2022-10-02T10:50:25.658Z,26.09
2022-10-02T10:55:33.565Z,27.14
2022-10-02T11:01:14.485Z,27.64
2022-10-02T11:06:53.125Z,28.15
2022-10-02T11:12:28.117Z,27.76
2022-10-02T11:18:03.034Z,28.32
2022-10-02T11:23:32.031Z,29.11
2022-10-02T11:28:59.302Z,27.99
2022-10-02T11:34:20.536Z,29.00
2022-10-02T11:39:43.108Z,28.11
2022-10-02T11:45:23.096Z,24.30
2022-10-02T11:50:39.885Z,20.72
2022-10-02T11:55:50.466Z,21.00
2022-10-02T12:01:21.919Z,24.48
2022-10-02T12:06:53.026Z,25.26
2022-10-02T12:12:29.897Z,26.19
2022-10-02T12:17:46.460Z,26.47
2022-10-02T12:23:35.923Z,26.64
2022-10-02T12:28:52.308Z,26.05
2022-10-02T12:34:21.333Z,25.42
2022-10-02T12:39:41.765Z,24.70
2022-10-02T12:45:01.713Z,24.19
2022-10-02T12:50:19.196Z,22.26
2022-10-02T12:56:08.733Z,22.88
2022-10-02T13:01:31.801Z,24.12
2022-10-02T13:06:54.264Z,23.33
2022-10-02T13:12:12.531Z,23.05
2022-10-02T13:17:30.266Z,22.13
2022-10-02T13:22:49.961Z,21.78
2022-10-02T13:28:17.962Z,21.06
2022-10-02T13:33:30.023Z,22.00
2022-10-02T13:38:53.969Z,22.57
2022-10-02T13:44:01.745Z,21.25
2022-10-02T13:49:43.350Z,20.55
2022-10-02T13:54:53.914Z,20.38
2022-10-02T14:00:23.734Z,20.73
2022-10-02T14:05:31.461Z,21.07
2022-10-02T14:11:11.731Z,20.05
2022-10-02T14:16:34.884Z,20.42
2022-10-02T14:21:41.993Z,20.86
2022-10-02T14:27:25.586Z,20.80
2022-10-02T14:32:47.237Z,21.07
2022-10-02T14:38:26.701Z,21.00
2022-10-02T14:43:36.801Z,20.12
2022-10-02T14:49:12.440Z,19.60
2022-10-02T14:54:41.823Z,19.46
2022-10-02T15:00:01.003Z,19.39
2022-10-02T15:05:27.207Z,18.76
2022-10-02T15:10:34.451Z,18.11
2022-10-02T15:16:13.116Z,17.50
2022-10-02T15:21:26.933Z,16.76
2022-10-02T15:26:46.590Z,16.33
2022-10-02T15:32:15.659Z,16.05
2022-10-02T15:37:35.406Z,15.96
2022-10-02T15:42:58.581Z,15.54
2022-10-02T15:48:19.528Z,15.30
2022-10-02T15:53:40.077Z,15.18
2022-10-02T15:58:53.539Z,15.20
2022-10-02T16:04:07.787Z,15.31
2022-10-02T16:09:16.259Z,15.20
2022-10-02T16:14:36.422Z,14.95
2022-10-02T16:19:46.805Z,14.82
2022-10-02T16:25:12.690Z,14.67
2022-10-02T16:30:16.415Z,14.59
2022-10-02T16:35:43.583Z,14.46
2022-10-02T16:40:59.193Z,14.44
2022-10-02T16:46:38.735Z,14.37
2022-10-02T16:51:51.459Z,14.30
2022-10-02T16:57:00.775Z,14.13
2022-10-02T17:02:17.954Z,14.01
2022-10-02T17:07:31.102Z,14.05
2022-10-02T17:12:46.332Z,13.90
2022-10-02T17:18:13.347Z,13.75
2022-10-02T17:23:25.058Z,13.59
2022-10-02T17:28:53.742Z,13.48
2022-10-02T17:34:11.605Z,13.34
2022-10-02T17:39:24.916Z,13.29
2022-10-02T17:44:33.934Z,13.14
2022-10-02T17:49:59.153Z,13.10
2022-10-02T17:55:40.736Z,13.09
2022-10-02T18:01:06.269Z,12.95
2022-10-02T18:06:24.490Z,12.92
2022-10-02T18:11:43.763Z,12.70
2022-10-02T18:17:14.154Z,12.61
2022-10-02T18:22:24.861Z,12.51
2022-10-02T18:27:45.053Z,12.35
2022-10-02T18:32:58.468Z,12.31
2022-10-02T18:38:12.368Z,12.25
2022-10-02T18:43:35.506Z,12.21
2022-10-02T18:48:51.922Z,11.98
2022-10-02T18:54:07.725Z,11.93
2022-10-02T18:59:45.607Z,11.83
2022-10-02T19:04:57.736Z,11.67
2022-10-02T19:10:26.140Z,11.61
2022-10-02T19:15:32.374Z,11.60
2022-10-02T19:20:42.573Z,11.46
2022-10-02T19:25:47.405Z,11.55
2022-10-02T19:30:53.336Z,11.39
2022-10-02T19:35:54.875Z,11.29
2022-10-02T19:41:00.731Z,11.27
2022-10-02T19:46:05.549Z,11.24
2022-10-02T19:51:16.935Z,11.10
2022-10-02T19:56:29.369Z,11.20
2022-10-02T20:01:43.927Z,11.18
2022-10-02T20:06:52.304Z,11.16
2022-10-02T20:12:20.884Z,11.04
2022-10-02T20:17:22.762Z,11.09
2022-10-02T20:22:35.890Z,11.06
2022-10-02T20:27:58.827Z,11.07
2022-10-02T20:33:06.805Z,10.97
2022-10-02T20:38:18.033Z,10.92
2022-10-02T20:43:36.969Z,10.86
2022-10-02T20:49:09.749Z,10.80
2022-10-02T20:54:25.266Z,10.71
2022-10-02T20:59:51.431Z,10.69
2022-10-02T21:05:36.311Z,10.52
2022-10-02T21:11:12.908Z,10.64
2022-10-02T21:16:29.393Z,10.58
2022-10-02T21:22:08.630Z,10.41
2022-10-02T21:27:40.939Z,10.48
2022-10-02T21:32:45.384Z,10.47
2022-10-02T21:38:19.726Z,10.38
2022-10-02T21:44:00.089Z,10.30
2022-10-02T21:49:27.767Z,10.20
2022-10-02T21:55:02.918Z,10.27
2022-10-02T22:00:22.179Z,10.21
2022-10-02T22:05:55.562Z,10.13
2022-10-02T22:11:33.627Z,10.17
2022-10-02T22:16:57.546Z,10.28
2022-10-02T22:22:35.863Z,10.42
2022-10-02T22:27:43.456Z,10.32
2022-10-02T22:33:08.777Z,10.29
2022-10-02T22:38:19.353Z,10.31
2022-10-02T22:43:47.969Z,10.26
2022-10-02T22:49:04.673Z,10.12
2022-10-02T22:54:18.407Z,10.04
2022-10-02T22:59:41.721Z,10.08
2022-10-02T23:05:11.177Z,9.99
2022-10-02T23:10:42.812Z,9.98
2022-10-02T23:16:05.369Z,10.03
2022-10-02T23:21:23.233Z,9.99
2022-10-02T23:26:31.761Z,9.92
2022-10-02T23:31:41.890Z,9.91
2022-10-02T23:36:57.681Z,9.80
2022-10-02T23:41:59.296Z,9.86
2022-10-02T23:47:09.910Z,9.91
2022-10-02T23:52:26.640Z,9.90
2022-10-02T23:57:59.031Z,9.89
